Time;durP1;ratioP1;P1;durP2;ratioP2;P2;SDS_P1;SDS_P2;PMS_P1;PMS_P2;Temp;Humidity;BMP_temperature;BMP_pressure;BME280_temperature;BME280_humidity;BME280_pressure;Samples;Min_cycle;Max_cycle;Signal;HPM_P1;HPM_P2
2021/06/25 00:00:44;;;;;;;1.80;1.70;;;18.10;99.90;;;;;;5032372;28;20170;-71
2021/06/25 00:03:09;;;;;;;1.80;1.70;;;18.10;99.90;;;;;;5033099;28;20166;-71
2021/06/25 00:05:35;;;;;;;2.00;1.90;;;18.10;99.90;;;;;;5032845;28;20172;-71
2021/06/25 00:08:01;;;;;;;1.60;1.50;;;18.10;99.90;;;;;;5032306;28;20177;-71
2021/06/25 00:10:26;;;;;;;2.27;2.17;;;18.10;99.90;;;;;;5034377;28;20461;-70
2021/06/25 00:12:52;;;;;;;27.67;6.70;;;18.00;99.90;;;;;;5036399;28;20173;-71
2021/06/25 00:15:18;;;;;;;6.70;4.47;;;18.00;99.90;;;;;;5035784;28;20233;-71
2021/06/25 00:17:44;;;;;;;7.57;2.83;;;18.00;99.90;;;;;;5035801;28;20201;-72
2021/06/25 00:20:12;;;;;;;2.60;2.40;;;18.00;99.90;;;;;;5035888;28;20975;-72
2021/06/25 00:22:38;;;;;;;6.50;2.50;;;18.00;99.90;;;;;;5036067;28;20166;-70
2021/06/25 00:25:04;;;;;;;3.20;2.80;;;17.90;99.90;;;;;;5036156;28;20410;-71
2021/06/25 00:27:30;;;;;;;1.73;1.63;;;17.90;99.90;;;;;;5035271;28;20201;-71
2021/06/25 00:29:55;;;;;;;2.73;2.50;;;17.90;99.90;;;;;;5036129;28;20505;-71
2021/06/25 00:32:21;;;;;;;7.07;2.60;;;17.80;99.90;;;;;;5035837;28;20239;-72
2021/06/25 00:34:47;;;;;;;4.30;4.00;;;17.80;99.90;;;;;;5035550;28;20797;-72
2021/06/25 00:37:12;;;;;;;1.73;1.57;;;17.80;99.90;;;;;;5035281;28;20287;-72
2021/06/25 00:39:38;;;;;;;2.13;1.93;;;17.80;99.90;;;;;;5035798;28;20609;-71
2021/06/25 00:42:06;;;;;;;1.70;1.60;;;17.70;99.90;;;;;;5035858;28;20194;-72
2021/06/25 00:44:32;;;;;;;2.43;2.23;;;17.70;99.90;;;;;;5035905;28;20166;-73
2021/06/25 00:46:57;;;;;;;1.67;1.57;;;17.70;99.90;;;;;;5035589;28;20833;-73
2021/06/25 00:49:23;;;;;;;1.77;1.67;;;17.70;99.90;;;;;;5017179;28;20292;-73
2021/06/25 00:51:49;;;;;;;1.80;1.53;;;17.70;99.90;;;;;;5017802;28;20711;-73
2021/06/25 00:54:15;;;;;;;1.53;1.43;;;17.60;99.90;;;;;;5035492;28;20197;-72
2021/06/25 00:56:42;;;;;;;1.60;1.50;;;17.60;99.90;;;;;;5035462;28;20171;-73
2021/06/25 00:59:08;;;;;;;2.43;1.30;;;17.60;99.90;;;;;;5034736;28;20477;-72
2021/06/25 01:01:34;;;;;;;1.30;1.30;;;17.60;99.90;;;;;;5035403;28;20429;-72
2021/06/25 01:03:59;;;;;;;1.50;1.40;;;17.50;99.90;;;;;;5035284;28;20459;-72
2021/06/25 01:06:25;;;;;;;1.33;1.23;;;17.50;99.90;;;;;;5035292;28;20178;-72
2021/06/25 01:08:51;;;;;;;1.20;1.10;;;17.50;99.90;;;;;;5034839;28;20202;-72
2021/06/25 01:11:18;;;;;;;1.60;1.50;;;17.50;99.90;;;;;;5035119;28;20410;-72
2021/06/25 01:13:44;;;;;;;2.53;1.43;;;17.50;99.90;;;;;;5034786;28;20183;-72
2021/06/25 01:16:10;;;;;;;1.13;1.03;;;17.50;99.90;;;;;;5034907;28;20418;-73
2021/06/25 01:18:36;;;;;;;1.23;1.13;;;17.60;99.90;;;;;;5033990;28;20203;-73
2021/06/25 01:21:02;;;;;;;1.03;1.03;;;17.60;99.90;;;;;;5035031;28;20761;-72
2021/06/25 01:23:28;;;;;;;1.60;1.50;;;17.60;99.90;;;;;;5035186;28;20493;-72
2021/06/25 01:25:55;;;;;;;1.00;1.00;;;17.50;99.90;;;;;;5034881;28;20586;-72
2021/06/25 01:28:21;;;;;;;1.17;1.07;;;17.50;99.90;;;;;;5034248;28;20424;-72
2021/06/25 01:30:48;;;;;;;1.63;1.53;;;17.50;99.90;;;;;;5016932;28;20402;-72
2021/06/25 01:33:17;;;;;;;1.60;1.50;;;17.50;99.90;;;;;;5034357;28;20429;-73
2021/06/25 01:35:44;;;;;;;1.53;1.43;;;17.50;99.90;;;;;;5034704;28;20414;-74
2021/06/25 01:38:11;;;;;;;1.30;1.20;;;17.40;99.90;;;;;;5033797;28;20462;-72
2021/06/25 01:40:38;;;;;;;1.47;1.37;;;17.40;99.90;;;;;;5034629;28;20788;-71
2021/06/25 01:43:08;;;;;;;1.27;1.17;;;17.40;99.90;;;;;;5034698;28;20410;-71
2021/06/25 01:45:36;;;;;;;2.00;1.20;;;17.30;99.90;;;;;;5034564;28;20458;-72
2021/06/25 01:48:04;;;;;;;1.80;1.17;;;17.30;99.90;;;;;;5033930;28;20410;-72
2021/06/25 01:50:37;;;;;;;1.33;1.23;;;17.30;99.90;;;;;;5034311;28;20436;-72
2021/06/25 01:53:05;;;;;;;1.17;1.07;;;17.30;99.90;;;;;;5016310;28;20425;-73
2021/06/25 01:55:41;;;;;;;1.40;1.30;;;17.30;99.90;;;;;;5034512;28;20413;-71
2021/06/25 01:58:16;;;;;;;1.50;1.40;;;17.30;99.90;;;;;;5034078;28;20450;-72
2021/06/25 02:00:45;;;;;;;1.30;1.20;;;17.20;99.90;;;;;;5034275;28;20423;-72
2021/06/25 02:03:11;;;;;;;1.10;1.00;;;17.30;99.90;;;;;;5016565;28;20421;-74
2021/06/25 02:05:37;;;;;;;1.20;1.00;;;17.20;99.90;;;;;;5033804;28;20425;-72
2021/06/25 02:08:03;;;;;;;1.47;1.30;;;17.30;99.90;;;;;;5033646;28;20183;-73
2021/06/25 02:10:29;;;;;;;1.00;1.00;;;17.30;99.90;;;;;;5033942;28;20197;-72
2021/06/25 02:12:55;;;;;;;1.00;1.00;;;17.30;99.90;;;;;;5016335;28;20209;-72
2021/06/25 02:15:20;;;;;;;1.60;1.50;;;17.30;99.90;;;;;;5034101;28;20474;-72
2021/06/25 02:17:46;;;;;;;1.83;1.73;;;17.30;99.90;;;;;;5033572;28;20444;-72
2021/06/25 02:20:12;;;;;;;0.70;0.70;;;17.20;99.90;;;;;;5033350;28;20613;-73
2021/06/25 02:22:38;;;;;;;1.53;1.43;;;17.30;99.90;;;;;;5033562;28;20170;-73
2021/06/25 02:25:09;;;;;;;1.80;1.60;;;17.30;99.90;;;;;;5033842;28;20792;-73
2021/06/25 02:27:35;;;;;;;1.03;1.03;;;17.20;99.90;;;;;;5033508;28;21003;-72
2021/06/25 02:30:01;;;;;;;1.50;1.10;;;17.30;99.90;;;;;;5033734;28;20496;-72
2021/06/25 02:32:27;;;;;;;1.70;1.60;;;17.30;99.90;;;;;;5033355;28;20906;-72
2021/06/25 02:34:53;;;;;;;1.10;1.00;;;17.30;99.90;;;;;;5033396;28;20474;-73
2021/06/25 02:37:18;;;;;;;1.00;0.90;;;17.30;99.90;;;;;;5033098;28;20294;-72
2021/06/25 02:39:44;;;;;;;1.40;1.30;;;17.30;99.90;;;;;;5033716;28;20211;-72
2021/06/25 02:42:10;;;;;;;1.33;1.30;;;17.30;99.90;;;;;;5033776;28;20163;-72
2021/06/25 02:44:35;;;;;;;1.23;1.13;;;17.30;99.90;;;;;;5016021;28;20170;-73
2021/06/25 02:47:01;;;;;;;1.33;1.23;;;17.30;99.90;;;;;;5033079;28;20246;-72
2021/06/25 02:49:27;;;;;;;2.70;1.90;;;17.30;99.90;;;;;;5033213;28;20193;-72
2021/06/25 02:51:52;;;;;;;1.10;1.10;;;17.30;99.90;;;;;;5033750;28;20178;-72
2021/06/25 02:54:18;;;;;;;1.50;1.40;;;17.30;99.90;;;;;;5033316;28;20258;-72
2021/06/25 02:56:44;;;;;;;1.63;1.53;;;17.30;99.90;;;;;;5033222;28;20250;-72
2021/06/25 02:59:09;;;;;;;1.60;1.20;;;17.40;99.90;;;;;;5032554;28;20186;-72
2021/06/25 03:01:35;;;;;;;1.37;1.27;;;17.30;99.90;;;;;;5033517;28;20251;-72
2021/06/25 03:04:01;;;;;;;1.10;1.10;;;17.30;99.90;;;;;;5015726;28;20223;-72
2021/06/25 03:06:26;;;;;;;1.83;1.30;;;17.40;99.90;;;;;;5033184;28;20636;-72
2021/06/25 03:08:52;;;;;;;1.70;1.03;;;17.30;99.90;;;;;;5015086;28;20285;-72
2021/06/25 03:11:18;;;;;;;1.30;1.20;;;17.30;99.90;;;;;;5033244;28;20924;-73
2021/06/25 03:13:44;;;;;;;1.10;1.10;;;17.30;99.90;;;;;;5032883;28;20552;-72
2021/06/25 03:16:09;;;;;;;1.43;1.23;;;17.30;99.90;;;;;;5015644;28;20500;-72
2021/06/25 03:18:36;;;;;;;1.40;1.30;;;17.20;99.90;;;;;;5032460;28;20221;-72
2021/06/25 03:21:02;;;;;;;1.13;1.00;;;17.30;99.90;;;;;;5033333;28;20239;-72
2021/06/25 03:23:27;;;;;;;1.00;1.00;;;17.30;99.90;;;;;;5032793;28;20417;-73
2021/06/25 03:25:53;;;;;;;1.93;1.00;;;17.20;99.90;;;;;;5033270;28;20163;-73
2021/06/25 03:28:19;;;;;;;1.00;1.00;;;17.20;99.90;;;;;;5014845;28;20175;-72
2021/06/25 03:30:44;;;;;;;1.00;1.00;;;17.10;99.90;;;;;;5033193;28;20644;-73
2021/06/25 03:33:10;;;;;;;1.40;1.30;;;17.20;99.90;;;;;;5033138;28;20216;-72
2021/06/25 03:35:36;;;;;;;2.77;1.00;;;17.10;99.90;;;;;;5033016;28;20206;-72
2021/06/25 03:38:03;;;;;;;0.90;0.90;;;17.10;99.90;;;;;;5032338;28;20228;-71
2021/06/25 03:40:32;;;;;;;1.87;1.00;;;17.10;99.90;;;;;;5032975;28;20807;-72
2021/06/25 03:42:58;;;;;;;1.07;1.07;;;17.00;99.90;;;;;;5033118;28;20765;-72
2021/06/25 03:45:24;;;;;;;1.33;1.20;;;17.00;99.90;;;;;;5016621;28;20417;-74
2021/06/25 03:47:51;;;;;;;1.13;1.13;;;17.00;99.90;;;;;;5036434;28;20741;-72
2021/06/25 03:50:16;;;;;;;1.00;1.00;;;16.90;99.90;;;;;;5036567;28;20186;-72
2021/06/25 03:52:42;;;;;;;1.47;1.37;;;17.00;99.90;;;;;;5036623;28;20412;-72
2021/06/25 03:55:10;;;;;;;1.53;1.43;;;17.00;99.90;;;;;;5036661;28;20179;-73
2021/06/25 03:57:39;;;;;;;1.10;1.00;;;17.00;99.90;;;;;;5036154;28;20182;-73
2021/06/25 04:00:08;;;;;;;1.40;1.30;;;17.00;99.90;;;;;;5036134;28;20539;-72
2021/06/25 04:02:33;;;;;;;1.10;1.00;;;17.10;99.90;;;;;;5036399;28;20401;-72
2021/06/25 04:04:59;;;;;;;0.90;0.80;;;17.10;99.90;;;;;;5036248;28;20408;-72
2021/06/25 04:07:27;;;;;;;1.90;1.23;;;17.10;99.90;;;;;;5035872;28;20192;-73
2021/06/25 04:09:53;;;;;;;1.27;1.20;;;17.10;99.90;;;;;;5035802;28;20212;-73
2021/06/25 04:12:19;;;;;;;1.00;0.90;;;17.10;99.90;;;;;;5036266;28;20436;-73
2021/06/25 04:14:45;;;;;;;1.40;1.30;;;17.20;99.90;;;;;;5035965;28;20821;-72
2021/06/25 04:17:10;;;;;;;1.30;1.20;;;17.10;99.90;;;;;;5017933;28;20193;-72
2021/06/25 04:19:36;;;;;;;1.57;1.00;;;17.10;99.90;;;;;;5036106;28;20294;-73
2021/06/25 04:22:02;;;;;;;1.50;1.40;;;17.00;99.90;;;;;;5036113;28;20181;-73
2021/06/25 04:24:27;;;;;;;2.33;2.00;;;17.00;99.90;;;;;;5035656;28;20666;-73
2021/06/25 04:26:53;;;;;;;1.67;1.40;;;17.00;99.90;;;;;;5018357;28;20224;-73
2021/06/25 04:29:18;;;;;;;1.00;1.00;;;17.00;99.90;;;;;;5035347;28;20194;-72
2021/06/25 04:31:51;;;;;;;1.10;1.10;;;17.00;99.90;;;;;;5035631;28;20167;-72
2021/06/25 04:34:16;;;;;;;1.60;1.50;;;17.00;99.90;;;;;;5017640;28;20269;-73
2021/06/25 04:36:42;;;;;;;1.50;1.40;;;17.00;99.90;;;;;;5035806;28;20463;-73
2021/06/25 04:39:08;;;;;;;1.30;1.20;;;17.00;99.90;;;;;;5035156;28;20218;-75
2021/06/25 04:41:34;;;;;;;1.17;1.03;;;17.00;99.90;;;;;;5035664;28;20175;-75
2021/06/25 04:44:00;;;;;;;1.00;1.00;;;17.00;99.90;;;;;;5035804;28;20238;-74
2021/06/25 04:46:26;;;;;;;1.30;1.30;;;16.90;99.90;;;;;;5035299;28;20422;-74
2021/06/25 04:48:52;;;;;;;1.37;1.27;;;16.90;99.90;;;;;;5017292;28;20946;-74
2021/06/25 04:51:17;;;;;;;2.00;1.80;;;16.90;99.90;;;;;;5035611;28;20745;-74
2021/06/25 04:53:43;;;;;;;1.80;1.70;;;16.90;99.90;;;;;;5035668;28;20174;-75
2021/06/25 04:56:09;;;;;;;1.10;1.10;;;16.90;99.90;;;;;;5034808;28;20182;-74
2021/06/25 04:58:34;;;;;;;1.23;1.13;;;16.90;99.90;;;;;;5035027;28;20260;-74
2021/06/25 05:01:00;;;;;;;2.50;1.40;;;16.90;99.90;;;;;;5035373;28;20178;-74
2021/06/25 05:03:26;;;;;;;1.90;1.40;;;16.80;99.90;;;;;;5035395;28;20525;-74
2021/06/25 05:05:52;;;;;;;1.73;1.53;;;16.80;99.90;;;;;;5035438;28;20207;-74
2021/06/25 05:08:17;;;;;;;1.50;1.30;;;16.80;99.90;;;;;;5016998;28;20452;-74
2021/06/25 05:10:43;;;;;;;1.67;1.57;;;16.90;99.90;;;;;;5034973;28;20182;-73
2021/06/25 05:13:11;;;;;;;1.40;1.30;;;16.90;99.90;;;;;;5017293;28;20636;-74
2021/06/25 05:15:36;;;;;;;1.40;1.30;;;16.90;99.90;;;;;;5035276;28;20406;-74
2021/06/25 05:18:13;;;;;;;1.70;1.60;;;17.00;99.90;;;;;;5016526;28;20468;-73
2021/06/25 05:20:40;;;;;;;1.10;1.07;;;17.00;99.90;;;;;;5035375;28;20425;-74
2021/06/25 05:23:06;;;;;;;1.27;1.17;;;17.10;99.90;;;;;;5034880;28;20406;-74
2021/06/25 05:25:31;;;;;;;1.30;1.30;;;17.10;99.90;;;;;;5035015;28;20989;-74
2021/06/25 05:27:57;;;;;;;1.33;1.23;;;17.20;99.90;;;;;;5034807;28;20185;-75
2021/06/25 05:30:23;;;;;;;2.40;1.40;;;17.20;99.90;;;;;;5034728;28;20218;-73
2021/06/25 05:32:48;;;;;;;1.17;1.00;;;17.20;99.90;;;;;;5034664;28;20187;-74
2021/06/25 05:35:14;;;;;;;1.20;1.20;;;17.20;99.90;;;;;;5034779;28;20412;-75
2021/06/25 05:37:40;;;;;;;1.33;1.27;;;17.20;99.90;;;;;;5034274;28;20222;-73
2021/06/25 05:40:06;;;;;;;1.00;1.00;;;17.20;99.90;;;;;;5033781;28;20252;-73
2021/06/25 05:42:32;;;;;;;1.43;1.20;;;17.20;99.90;;;;;;5034368;28;20232;-74
2021/06/25 05:44:57;;;;;;;1.47;1.30;;;17.30;99.90;;;;;;5034284;28;20412;-74
2021/06/25 05:47:23;;;;;;;3.80;3.40;;;17.30;99.90;;;;;;5033802;28;20183;-74
2021/06/25 05:49:49;;;;;;;1.70;1.60;;;17.40;99.90;;;;;;5034216;28;20666;-73
2021/06/25 05:52:14;;;;;;;2.10;1.60;;;17.40;99.90;;;;;;5034365;28;20238;-74
2021/06/25 05:54:40;;;;;;;6.43;1.53;;;17.40;99.90;;;;;;5034210;28;20198;-73
2021/06/25 05:57:06;;;;;;;1.57;1.47;;;17.40;99.90;;;;;;5033699;28;20260;-74
2021/06/25 05:59:34;;;;;;;1.20;1.10;;;17.40;99.90;;;;;;5033979;28;20596;-74
2021/06/25 06:01:59;;;;;;;2.20;2.00;;;17.30;99.90;;;;;;5016420;28;20471;-74
2021/06/25 06:04:25;;;;;;;1.83;1.50;;;17.20;99.90;;;;;;5033872;28;20884;-74
2021/06/25 06:06:51;;;;;;;2.40;2.20;;;17.20;99.90;;;;;;5033699;28;20173;-70
2021/06/25 06:09:16;;;;;;;1.80;1.70;;;17.10;99.90;;;;;;5015044;28;20428;-70
2021/06/25 06:11:42;;;;;;;2.00;1.70;;;17.00;99.90;;;;;;5034001;28;20651;-70
2021/06/25 06:14:08;;;;;;;1.77;1.63;;;16.90;99.90;;;;;;5033784;28;20166;-68
2021/06/25 06:16:34;;;;;;;2.33;1.77;;;16.90;99.90;;;;;;5033911;28;20162;-66
2021/06/25 06:19:00;;;;;;;2.27;2.00;;;16.90;99.90;;;;;;5033109;28;20218;-67
2021/06/25 06:21:26;;;;;;;2.37;1.93;;;16.80;99.90;;;;;;5033517;28;20432;-64
2021/06/25 06:34:35;;;;;;;2.70;2.20;;;17.00;99.90;;;;;;5031827;28;20433;-68
2021/06/25 06:37:01;;;;;;;2.40;2.17;;;17.10;99.90;;;;;;5033262;28;20420;-68
2021/06/25 06:39:28;;;;;;;4.63;2.13;;;17.20;99.90;;;;;;5033235;28;20429;-67
2021/06/25 06:41:55;;;;;;;1.90;1.80;;;17.30;99.90;;;;;;5033326;28;20529;-67
2021/06/25 06:44:20;;;;;;;1.70;1.60;;;17.50;99.90;;;;;;5015713;28;20500;-66
2021/06/25 06:46:46;;;;;;;1.50;1.40;;;17.70;99.90;;;;;;5033215;28;20438;-68
2021/06/25 06:49:12;;;;;;;1.63;1.53;;;17.80;99.90;;;;;;5015198;28;20200;-68
2021/06/25 06:51:39;;;;;;;2.23;2.03;;;18.00;99.90;;;;;;5015421;28;20371;-67
2021/06/25 06:54:05;;;;;;;1.57;1.40;;;18.10;99.90;;;;;;5033262;28;20172;-67
2021/06/25 06:56:32;;;;;;;2.20;1.80;;;18.30;99.90;;;;;;5032934;28;20921;-68
2021/06/25 06:59:00;;;;;;;1.80;1.70;;;18.30;99.90;;;;;;5033022;28;20508;-67
2021/06/25 07:01:26;;;;;;;2.87;2.63;;;18.50;99.90;;;;;;5033041;28;20420;-67
2021/06/25 07:03:52;;;;;;;2.10;1.90;;;18.60;99.90;;;;;;5032482;28;20424;-67
2021/06/25 07:06:18;;;;;;;1.60;1.50;;;18.60;99.90;;;;;;5033311;28;20409;-66
2021/06/25 07:08:44;;;;;;;1.30;1.20;;;18.70;99.90;;;;;;5032829;28;20217;-68
2021/06/25 07:11:09;;;;;;;1.60;1.50;;;18.80;99.90;;;;;;5033102;28;20181;-66
2021/06/25 07:13:35;;;;;;;4.03;3.40;;;18.90;99.90;;;;;;5033309;28;20768;-67
2021/06/25 07:16:01;;;;;;;1.87;1.77;;;19.00;99.90;;;;;;5035607;28;20190;-68
2021/06/25 07:18:27;;;;;;;1.63;1.50;;;19.10;99.90;;;;;;5047016;28;20859;-66
2021/06/25 07:20:53;;;;;;;1.90;1.80;;;19.30;99.90;;;;;;5017744;28;20185;-68
2021/06/25 07:23:19;;;;;;;2.07;1.87;;;19.50;99.90;;;;;;5036550;28;20209;-66
2021/06/25 07:25:46;;;;;;;1.60;1.50;;;19.50;99.90;;;;;;5036679;28;20419;-66
2021/06/25 07:28:11;;;;;;;1.90;1.80;;;19.50;99.90;;;;;;5018534;28;20474;-65
2021/06/25 07:30:37;;;;;;;1.63;1.53;;;19.40;99.90;;;;;;5036403;28;20505;-66
2021/06/25 07:33:03;;;;;;;1.80;1.70;;;19.30;99.90;;;;;;5036871;28;20581;-66
2021/06/25 07:35:30;;;;;;;2.23;2.00;;;19.10;99.90;;;;;;5035977;28;20170;-65
2021/06/25 07:37:56;;;;;;;2.20;2.10;;;18.90;99.90;;;;;;5034353;28;20454;-65
2021/06/25 07:40:22;;;;;;;2.07;1.87;;;18.80;99.90;;;;;;5036068;28;20442;-65
2021/06/25 07:42:48;;;;;;;2.23;2.13;;;18.70;99.90;;;;;;5036182;28;20405;-64
2021/06/25 07:45:14;;;;;;;1.93;1.80;;;18.50;99.90;;;;;;5036163;28;20251;-63
2021/06/25 07:47:42;;;;;;;2.20;2.10;;;18.40;99.90;;;;;;5035670;28;20420;-64
2021/06/25 07:50:11;;;;;;;2.80;1.80;;;18.40;99.90;;;;;;5036015;28;20434;-65
2021/06/25 07:52:37;;;;;;;3.60;3.23;;;18.40;99.90;;;;;;5036550;28;20468;-65
2021/06/25 07:55:04;;;;;;;2.60;2.40;;;18.50;99.90;;;;;;5035860;28;20451;-64
2021/06/25 07:57:30;;;;;;;1.83;1.73;;;18.80;99.90;;;;;;5035840;28;20833;-65
2021/06/25 07:59:55;;;;;;;3.00;2.80;;;19.10;99.90;;;;;;5036439;28;20513;-65
2021/06/25 08:02:21;;;;;;;3.97;2.20;;;19.40;99.90;;;;;;5035965;28;20185;-66
2021/06/25 08:04:47;;;;;;;2.67;2.47;;;19.70;99.90;;;;;;5036368;28;20166;-66
2021/06/25 08:07:13;;;;;;;4.00;3.60;;;19.90;99.90;;;;;;5035920;28;20677;-63
2021/06/25 08:09:40;;;;;;;4.13;3.73;;;20.00;99.90;;;;;;5035829;28;20198;-66
2021/06/25 08:12:08;;;;;;;3.27;2.97;;;20.20;99.90;;;;;;5035926;28;20416;-65
2021/06/25 08:14:33;;;;;;;5.80;3.47;;;20.20;99.90;;;;;;5036117;28;20413;-66
2021/06/25 08:16:59;;;;;;;4.87;4.13;;;20.10;99.90;;;;;;5035634;28;20424;-65
2021/06/25 08:19:25;;;;;;;3.97;3.67;;;19.90;99.90;;;;;;5035382;28;20209;-66
2021/06/25 08:21:50;;;;;;;3.73;3.43;;;19.80;99.90;;;;;;5035707;28;20250;-65
2021/06/25 08:24:16;;;;;;;3.07;2.77;;;19.90;99.90;;;;;;5036117;28;20514;-65
2021/06/25 08:26:41;;;;;;;10.17;7.17;;;20.00;99.90;;;;;;5035174;28;20583;-66
2021/06/25 08:29:07;;;;;;;4.87;3.90;;;20.20;99.90;;;;;;5035310;28;20187;-66
2021/06/25 08:31:33;;;;;;;3.53;2.80;;;20.20;99.90;;;;;;5034971;28;20170;-65
2021/06/25 08:33:58;;;;;;;4.80;3.97;;;20.10;99.90;;;;;;5035450;28;20171;-66
2021/06/25 08:36:25;;;;;;;5.33;4.03;;;19.90;99.90;;;;;;5036288;28;20175;-65
2021/06/25 08:38:52;;;;;;;4.17;3.23;;;19.70;99.90;;;;;;5035272;28;20257;-65
2021/06/25 08:41:18;;;;;;;2.97;2.63;;;19.50;99.90;;;;;;5017879;28;20417;-67
2021/06/25 08:43:44;;;;;;;5.83;3.27;;;19.30;99.90;;;;;;5035492;28;20508;-67
2021/06/25 08:46:10;;;;;;;2.37;2.17;;;19.10;99.90;;;;;;5035770;28;20762;-64
2021/06/25 08:48:37;;;;;;;1.87;1.67;;;18.90;99.90;;;;;;5034869;28;20440;-66
2021/06/25 08:51:05;;;;;;;2.17;1.97;;;18.80;99.90;;;;;;5035457;28;20384;-63
2021/06/25 08:53:30;;;;;;;2.30;2.10;;;18.80;99.90;;;;;;5035516;28;20436;-66
2021/06/25 08:55:56;;;;;;;2.03;1.80;;;18.80;99.90;;;;;;5035696;28;20416;-66
2021/06/25 08:58:23;;;;;;;1.87;1.77;;;18.80;99.90;;;;;;5034799;28;20218;-65
2021/06/25 09:00:50;;;;;;;1.70;1.60;;;19.00;99.90;;;;;;5035617;28;20244;-63
2021/06/25 09:03:26;;;;;;;1.80;1.70;;;19.10;99.90;;;;;;5035029;28;20830;-66
2021/06/25 09:06:05;;;;;;;1.47;1.37;;;19.40;99.90;;;;;;5036632;28;20411;-64
2021/06/25 09:08:31;;;;;;;1.30;1.20;;;19.40;99.90;;;;;;5017184;28;20420;-65
2021/06/25 09:10:59;;;;;;;2.30;1.77;;;19.50;99.90;;;;;;5035171;28;20448;-66
2021/06/25 09:13:38;;;;;;;1.40;1.30;;;19.60;99.90;;;;;;5017621;28;20568;-64
2021/06/25 09:16:25;;;;;;;1.07;1.03;;;19.70;99.90;;;;;;5034775;28;20436;-65
2021/06/25 09:19:17;;;;;;;1.00;1.00;;;19.60;99.90;;;;;;5016173;28;20496;-66
2021/06/25 09:21:58;;;;;;;1.33;1.10;;;19.60;99.90;;;;;;5017070;28;20416;-65
2021/06/25 09:24:26;;;;;;;1.50;1.40;;;19.50;99.90;;;;;;5034917;28;20543;-66
2021/06/25 09:27:05;;;;;;;1.60;1.50;;;19.30;99.90;;;;;;5034764;28;20408;-67
2021/06/25 09:29:36;;;;;;;1.23;1.13;;;19.10;99.90;;;;;;5034420;28;20437;-65
2021/06/25 09:32:04;;;;;;;2.67;1.73;;;18.90;99.90;;;;;;5035045;28;20380;-66
2021/06/25 09:34:40;;;;;;;2.07;1.53;;;18.70;99.90;;;;;;5034850;28;20405;-66
2021/06/25 09:37:10;;;;;;;1.43;1.33;;;18.60;99.90;;;;;;5034897;28;20409;-64
2021/06/25 09:39:40;;;;;;;1.60;1.50;;;18.50;99.90;;;;;;5035224;28;20447;-64
2021/06/25 09:42:18;;;;;;;2.60;2.20;;;18.40;99.90;;;;;;5035171;28;20382;-65
2021/06/25 09:45:02;;;;;;;2.00;1.80;;;18.30;99.90;;;;;;5035290;28;20432;-66
2021/06/25 09:47:33;;;;;;;1.70;1.60;;;18.30;99.90;;;;;;5017691;28;20766;-64
2021/06/25 09:50:12;;;;;;;1.60;1.50;;;18.20;99.90;;;;;;5035346;28;20444;-68
2021/06/25 09:52:57;;;;;;;1.80;1.70;;;18.20;99.90;;;;;;5035117;28;20775;-65
2021/06/25 09:55:26;;;;;;;1.90;1.70;;;18.20;99.90;;;;;;5034478;28;20523;-65
2021/06/25 09:58:12;;;;;;;2.20;2.00;;;18.20;99.90;;;;;;5034127;28;20491;-66
2021/06/25 10:04:02;;;;;;;2.50;2.30;;;18.30;99.90;;;;;;5034137;28;20423;-66
2021/06/25 10:06:30;;;;;;;3.00;2.37;;;18.30;99.90;;;;;;5034413;28;20495;-66
2021/06/25 10:08:57;;;;;;;3.60;3.10;;;18.30;99.90;;;;;;5033787;28;20483;-65
2021/06/25 10:11:25;;;;;;;3.73;2.60;;;18.30;99.90;;;;;;5033956;28;20404;-65
2021/06/25 10:13:53;;;;;;;5.07;3.80;;;18.30;99.90;;;;;;5034281;28;20448;-66
2021/06/25 10:16:19;;;;;;;4.20;3.70;;;18.20;99.90;;;;;;5033997;28;20494;-66
2021/06/25 10:18:50;;;;;;;5.13;4.67;;;18.20;99.90;;;;;;5033339;28;20582;-65
2021/06/25 10:21:18;;;;;;;4.80;4.27;;;18.20;99.90;;;;;;5033856;28;20428;-65
2021/06/25 10:23:52;;;;;;;7.43;4.53;;;18.20;99.90;;;;;;5033867;28;20390;-66
2021/06/25 10:26:19;;;;;;;4.87;4.00;;;18.10;99.90;;;;;;5033960;28;20822;-65
2021/06/25 10:28:47;;;;;;;4.83;4.33;;;18.10;99.90;;;;;;5033370;28;20440;-65
2021/06/25 10:31:16;;;;;;;8.57;5.00;;;18.20;99.90;;;;;;5033934;28;20791;-65
2021/06/25 10:33:42;;;;;;;5.80;4.27;;;18.20;99.90;;;;;;5033809;28;20771;-65
2021/06/25 10:36:11;;;;;;;7.13;5.87;;;18.30;99.90;;;;;;5033037;28;20432;-66
2021/06/25 10:38:43;;;;;;;6.13;5.10;;;18.50;99.90;;;;;;5033187;28;20911;-66
2021/06/25 10:41:11;;;;;;;5.77;4.80;;;18.60;99.90;;;;;;5033719;28;20759;-65
2021/06/25 10:43:50;;;;;;;6.33;4.73;;;18.80;99.90;;;;;;5033742;28;20417;-65
2021/06/25 10:46:34;;;;;;;8.37;5.03;;;18.90;99.90;;;;;;5033604;28;20763;-67
2021/06/25 10:49:04;;;;;;;6.37;5.07;;;19.00;99.90;;;;;;5033303;28;20922;-66
2021/06/25 10:51:36;;;;;;;9.00;6.17;;;19.10;99.90;;;;;;5033324;28;20439;-66
2021/06/25 10:54:12;;;;;;;7.60;5.07;;;19.10;99.90;;;;;;5033223;28;20405;-64
2021/06/25 10:57:00;;;;;;;6.33;4.57;;;19.20;99.90;;;;;;5033604;28;20427;-64
2021/06/25 10:59:28;;;;;;;8.30;7.30;;;19.10;99.90;;;;;;5015616;28;20834;-66
2021/06/25 11:01:54;;;;;;;10.07;6.87;;;19.10;99.90;;;;;;5033452;28;20524;-65
2021/06/25 11:04:41;;;;;;;9.10;6.33;;;19.10;99.90;;;;;;5032936;28;20435;-65
2021/06/25 11:07:18;;;;;;;7.70;5.23;;;19.10;99.90;;;;;;5015389;28;20261;-65
2021/06/25 11:09:52;;;;;;;8.10;6.10;;;19.10;99.90;;;;;;5033485;28;20520;-66
2021/06/25 11:12:26;;;;;;;8.90;6.07;;;19.10;99.90;;;;;;5033287;28;20416;-66
2021/06/25 11:15:13;;;;;;;9.53;6.43;;;19.20;99.90;;;;;;5033490;28;20490;-66
2021/06/25 11:17:47;;;;;;;9.57;6.57;;;19.30;99.90;;;;;;5032095;28;20456;-67
2021/06/25 11:20:21;;;;;;;9.77;6.50;;;19.40;99.90;;;;;;5030309;28;20882;-67
2021/06/25 11:23:08;;;;;;;7.67;5.60;;;19.60;99.90;;;;;;5033358;28;20908;-66
2021/06/25 11:25:56;;;;;;;9.17;5.90;;;19.70;99.90;;;;;;5033183;28;20409;-65
2021/06/25 11:28:33;;;;;;;6.87;5.77;;;19.90;99.90;;;;;;5032495;28;20417;-65
2021/06/25 11:31:13;;;;;;;5.77;5.17;;;20.10;99.90;;;;;;5032680;28;20411;-66
2021/06/25 11:33:48;;;;;;;5.13;4.43;;;20.30;99.90;;;;;;5032829;28;20499;-66
2021/06/25 11:36:13;;;;;;;5.97;5.37;;;20.50;99.90;;;;;;5015210;28;20431;-65
2021/06/25 11:39:00;;;;;;;5.37;4.33;;;20.60;99.90;;;;;;5032176;28;20457;-66
2021/06/25 11:41:29;;;;;;;6.53;5.43;;;20.90;99.90;;;;;;5032713;28;20184;-67
2021/06/25 11:43:56;;;;;;;7.50;6.00;;;21.10;99.90;;;;;;5032914;28;20772;-64
2021/06/25 11:46:22;;;;;;;7.77;6.63;;;21.40;99.90;;;;;;5032511;28;20394;-65
2021/06/25 11:48:48;;;;;;;9.57;6.30;;;21.60;99.90;;;;;;5014362;28;20447;-65
2021/06/25 11:51:17;;;;;;;9.17;6.27;;;21.60;99.90;;;;;;5032498;28;20247;-64
2021/06/25 11:53:47;;;;;;;7.30;6.50;;;21.80;99.90;;;;;;5032859;28;20924;-66
2021/06/25 11:56:23;;;;;;;11.03;7.57;;;21.80;99.90;;;;;;5032730;28;20394;-64
2021/06/25 11:59:01;;;;;;;8.20;6.57;;;21.80;99.90;;;;;;5032316;28;20503;-65
2021/06/25 12:01:28;;;;;;;8.57;6.20;;;22.00;99.90;;;;;;5032901;28;20492;-64
2021/06/25 12:03:55;;;;;;;7.50;6.10;;;22.20;99.90;;;;;;5032558;28;20384;-65
2021/06/25 12:06:21;;;;;;;12.33;6.40;;;22.60;99.90;;;;;;5034162;28;20433;-66
2021/06/25 12:08:56;;;;;;;8.80;7.10;;;22.90;99.90;;;;;;5035829;28;20505;-65
2021/06/25 12:11:24;;;;;;;10.20;7.00;;;23.00;99.90;;;;;;5036436;28;20616;-66
2021/06/25 12:14:04;;;;;;;7.70;6.07;;;22.90;99.90;;;;;;5035868;28;20958;-66
2021/06/25 12:16:31;;;;;;;7.47;6.03;;;23.00;99.90;;;;;;5036179;28;20513;-65
2021/06/25 12:18:58;;;;;;;7.10;6.03;;;23.00;99.90;;;;;;5035311;28;20555;-65
2021/06/25 12:21:23;;;;;;;6.90;5.43;;;22.90;99.90;;;;;;5035566;28;20463;-66
2021/06/25 12:23:56;;;;;;;6.80;5.33;;;22.90;99.90;;;;;;5035983;28;20405;-65
2021/06/25 12:26:22;;;;;;;8.93;4.97;;;22.80;99.90;;;;;;5036138;28;20277;-65
2021/06/25 12:28:50;;;;;;;5.60;4.73;;;22.80;99.90;;;;;;5035505;28;20927;-66
2021/06/25 12:31:22;;;;;;;5.67;4.30;;;22.60;99.90;;;;;;5036171;28;20483;-66
2021/06/25 12:34:01;;;;;;;6.77;5.43;;;22.50;99.90;;;;;;5035601;28;20435;-66
2021/06/25 12:36:27;;;;;;;5.60;4.43;;;22.40;99.90;;;;;;5036074;28;20893;-66
2021/06/25 12:38:59;;;;;;;7.23;4.27;;;22.40;99.90;;;;;;5017411;28;20467;-66
2021/06/25 12:41:24;;;;;;;6.90;5.10;;;22.40;99.90;;;;;;5035857;28;20242;-64
2021/06/25 12:43:53;;;;;;;5.77;4.23;;;22.30;99.90;;;;;;5018282;28;20500;-66
2021/06/25 12:46:21;;;;;;;5.17;4.57;;;22.30;99.90;;;;;;5035341;28;20389;-66
2021/06/25 12:48:49;;;;;;;4.70;4.10;;;22.20;99.90;;;;;;5034827;28;20531;-67
2021/06/25 12:51:28;;;;;;;5.53;4.23;;;22.30;99.90;;;;;;5017607;28;20508;-67
2021/06/25 12:53:59;;;;;;;8.13;4.40;;;22.50;99.90;;;;;;5017453;28;20408;-67
2021/06/25 12:56:30;;;;;;;6.27;5.40;;;22.50;99.90;;;;;;5017591;28;20416;-66
2021/06/25 12:59:04;;;;;;;6.53;5.87;;;22.40;99.90;;;;;;5034651;28;20468;-64
2021/06/25 13:01:41;;;;;;;5.40;4.90;;;22.20;99.90;;;;;;5035047;28;20753;-65
2021/06/25 13:04:20;;;;;;;6.33;4.77;;;22.20;99.90;;;;;;5035072;28;20383;-65